Terminal Aerodrome Forecast
Issued by NWS

Home | Current Version | Previous Version | Text Only | Print | Product List | Glossary On
Versions: 1 2 3 4 5 6 7 8 9 10 11 12 13 14 15 16 17
000
FTUS44 KLIX 171737
TAFGPT
TAF
KGPT 171737Z 1718/1818 22008KT P6SM SCT020 BKN110
     FM172000 21008KT P6SM BKN020 BKN090
     FM180400 24004KT 5SM BR SCT050 BKN100
     FM180800 33004KT 3SM BR BKN003 BKN045
     FM181000 36004KT 2SM BR BKN015 BKN040
     FM181330 03005KT P6SM BKN003 BKN035
     FM181600 09005KT P6SM BKN008=

USA.gov is the U.S. government's official web portal to all federal, state and local government web resources and services.